sensor_id;sensor_type;location;lat;lon;timestamp;pressure;altitude;pressure_sealevel;temperature;humidity
46718;BME280;32448;44.960;-0.698;2022-10-16T03:01:46;100923.22;;;14.87;100.00
46718;BME280;32448;44.960;-0.698;2022-10-16T03:04:13;100929.34;;;14.87;100.00
46718;BME280;32448;44.960;-0.698;2022-10-16T03:06:40;100924.03;;;14.69;100.00
46718;BME280;32448;44.960;-0.698;2022-10-16T03:09:08;100942.50;;;14.84;100.00
46718;BME280;32448;44.960;-0.698;2022-10-16T03:11:35;100944.25;;;14.85;100.00
46718;BME280;32448;44.960;-0.698;2022-10-16T03:14:02;100946.84;;;14.81;100.00
46718;BME280;32448;44.960;-0.698;2022-10-16T03:16:30;100960.91;;;14.77;100.00
46718;BME280;32448;44.960;-0.698;2022-10-16T03:18:57;100946.00;;;14.79;100.00
46718;BME280;32448;44.960;-0.698;2022-10-16T03:21:24;100958.28;;;14.80;100.00
46718;BME280;32448;44.960;-0.698;2022-10-16T03:23:51;100952.97;;;14.71;100.00
46718;BME280;32448;44.960;-0.698;2022-10-16T03:26:19;100948.59;;;14.71;100.00
46718;BME280;32448;44.960;-0.698;2022-10-16T03:28:46;100945.97;;;14.73;100.00
46718;BME280;32448;44.960;-0.698;2022-10-16T03:31:13;100936.31;;;14.66;100.00
46718;BME280;32448;44.960;-0.698;2022-10-16T03:33:40;100948.59;;;14.71;100.00
46718;BME280;32448;44.960;-0.698;2022-10-16T03:36:08;100948.59;;;14.74;100.00
46718;BME280;32448;44.960;-0.698;2022-10-16T03:38:35;100945.97;;;14.71;100.00
46718;BME280;32448;44.960;-0.698;2022-10-16T03:41:02;100946.84;;;14.66;100.00
46718;BME280;32448;44.960;-0.698;2022-10-16T03:43:31;100928.38;;;14.52;100.00
46718;BME280;32448;44.960;-0.698;2022-10-16T03:45:58;100940.69;;;14.64;100.00
46718;BME280;32448;44.960;-0.698;2022-10-16T03:48:26;100944.22;;;14.66;100.00
46718;BME280;32448;44.960;-0.698;2022-10-16T03:50:53;100939.78;;;14.55;100.00
46718;BME280;32448;44.960;-0.698;2022-10-16T03:53:21;100942.44;;;14.57;100.00
46718;BME280;32448;44.960;-0.698;2022-10-16T03:55:49;100939.75;;;14.48;100.00
46718;BME280;32448;44.960;-0.698;2022-10-16T03:58:17;100904.59;;;14.25;100.00
46718;BME280;32448;44.960;-0.698;2022-10-16T04:00:44;100944.16;;;14.46;100.00
46718;BME280;32448;44.960;-0.698;2022-10-16T04:03:12;100942.38;;;14.48;100.00
46718;BME280;32448;44.960;-0.698;2022-10-16T04:05:39;100945.00;;;14.49;100.00
46718;BME280;32448;44.960;-0.698;2022-10-16T04:08:07;100942.38;;;14.43;100.00
46718;BME280;32448;44.960;-0.698;2022-10-16T04:10:34;100937.91;;;14.33;100.00
46718;BME280;32448;44.960;-0.698;2022-10-16T04:13:02;100928.28;;;14.37;100.00
46718;BME280;32448;44.960;-0.698;2022-10-16T04:15:29;100925.63;;;14.31;100.00
46718;BME280;32448;44.960;-0.698;2022-10-16T04:17:57;100934.41;;;14.33;100.00
46718;BME280;32448;44.960;-0.698;2022-10-16T04:20:24;100930.91;;;14.32;100.00
46718;BME280;32448;44.960;-0.698;2022-10-16T04:22:51;100940.56;;;14.33;100.00
46718;BME280;32448;44.960;-0.698;2022-10-16T04:25:19;100936.97;;;14.25;100.00
46718;BME280;32448;44.960;-0.698;2022-10-16T04:27:46;100944.91;;;14.30;100.00
46718;BME280;32448;44.960;-0.698;2022-10-16T04:30:13;100943.16;;;14.32;100.00
46718;BME280;32448;44.960;-0.698;2022-10-16T04:32:41;100940.50;;;14.27;100.00
46718;BME280;32448;44.960;-0.698;2022-10-16T04:35:09;100940.50;;;14.26;100.00
46718;BME280;32448;44.960;-0.698;2022-10-16T04:37:36;100944.88;;;14.25;100.00
46718;BME280;32448;44.960;-0.698;2022-10-16T04:40:04;100944.88;;;14.20;100.00
46718;BME280;32448;44.960;-0.698;2022-10-16T04:42:31;100950.13;;;14.27;100.00
46718;BME280;32448;44.960;-0.698;2022-10-16T04:44:58;100951.88;;;14.26;100.00
46718;BME280;32448;44.960;-0.698;2022-10-16T04:47:26;100942.25;;;14.20;100.00
46718;BME280;32448;44.960;-0.698;2022-10-16T04:49:54;100941.38;;;14.23;100.00
46718;BME280;32448;44.960;-0.698;2022-10-16T04:52:21;100931.69;;;14.16;100.00
46718;BME280;32448;44.960;-0.698;2022-10-16T04:54:51;100944.88;;;14.24;100.00
46718;BME280;32448;44.960;-0.698;2022-10-16T04:57:18;100943.97;;;14.18;100.00
46718;BME280;32448;44.960;-0.698;2022-10-16T04:59:46;100958.00;;;14.17;100.00
46718;BME280;32448;44.960;-0.698;2022-10-16T05:02:13;100962.34;;;14.14;100.00
46718;BME280;32448;44.960;-0.698;2022-10-16T05:04:40;100962.34;;;14.09;100.00
46718;BME280;32448;44.960;-0.698;2022-10-16T05:07:08;100965.88;;;14.16;100.00
46718;BME280;32448;44.960;-0.698;2022-10-16T05:09:35;100972.84;;;14.08;100.00
46718;BME280;32448;44.960;-0.698;2022-10-16T05:12:02;100970.22;;;14.08;100.00
46718;BME280;32448;44.960;-0.698;2022-10-16T05:14:30;100972.00;;;14.12;100.00
46718;BME280;32448;44.960;-0.698;2022-10-16T05:16:59;100960.53;;;13.99;100.00
46718;BME280;32448;44.960;-0.698;2022-10-16T05:19:27;100978.94;;;14.04;100.00
46718;BME280;32448;44.960;-0.698;2022-10-16T05:21:55;100989.47;;;14.02;100.00
46718;BME280;32448;44.960;-0.698;2022-10-16T05:24:22;100992.94;;;14.04;100.00
46718;BME280;32448;44.960;-0.698;2022-10-16T05:26:49;100981.50;;;13.93;100.00
46718;BME280;32448;44.960;-0.698;2022-10-16T05:29:17;100989.38;;;13.90;100.00
46718;BME280;32448;44.960;-0.698;2022-10-16T05:31:44;100983.25;;;13.93;100.00
46718;BME280;32448;44.960;-0.698;2022-10-16T05:34:11;100979.72;;;13.89;100.00
46718;BME280;32448;44.960;-0.698;2022-10-16T05:36:38;100990.25;;;13.92;100.00
46718;BME280;32448;44.960;-0.698;2022-10-16T05:39:06;100988.47;;;13.88;100.00
46718;BME280;32448;44.960;-0.698;2022-10-16T05:41:33;100989.34;;;13.87;100.00
46718;BME280;32448;44.960;-0.698;2022-10-16T05:44:04;100992.00;;;13.89;100.00
46718;BME280;32448;44.960;-0.698;2022-10-16T05:46:32;100990.19;;;13.84;100.00
46718;BME280;32448;44.960;-0.698;2022-10-16T05:49:00;100998.94;;;13.80;100.00
46718;BME280;32448;44.960;-0.698;2022-10-16T05:51:27;100991.94;;;13.79;100.00
46718;BME280;32448;44.960;-0.698;2022-10-16T05:53:54;100993.69;;;13.83;100.00
46718;BME280;32448;44.960;-0.698;2022-10-16T05:56:21;100992.78;;;13.81;100.00
46718;BME280;32448;44.960;-0.698;2022-10-16T05:58:49;101000.66;;;13.77;100.00
46718;BME280;32448;44.960;-0.698;2022-10-16T06:01:18;100990.09;;;13.72;100.00
46718;BME280;32448;44.960;-0.698;2022-10-16T06:03:46;100986.59;;;13.72;100.00
46718;BME280;32448;44.960;-0.698;2022-10-16T06:06:19;100990.09;;;13.68;100.00
46718;BME280;32448;44.960;-0.698;2022-10-16T06:08:48;100986.63;;;13.75;100.00
46718;BME280;32448;44.960;-0.698;2022-10-16T06:11:18;100969.03;;;13.65;100.00
46718;BME280;32448;44.960;-0.698;2022-10-16T06:13:53;100961.09;;;13.56;100.00
46718;BME280;32448;44.960;-0.698;2022-10-16T06:16:21;100982.16;;;13.62;100.00
46718;BME280;32448;44.960;-0.698;2022-10-16T06:18:51;100995.25;;;13.57;100.00
46718;BME280;32448;44.960;-0.698;2022-10-16T06:21:25;100988.25;;;13.56;100.00
46718;BME280;32448;44.960;-0.698;2022-10-16T06:23:54;100983.88;;;13.57;100.00
46718;BME280;32448;44.960;-0.698;2022-10-16T06:26:26;100981.22;;;13.54;100.00
46718;BME280;32448;44.960;-0.698;2022-10-16T06:28:55;100989.88;;;13.42;100.00
46718;BME280;32448;44.960;-0.698;2022-10-16T06:31:24;100984.59;;;13.40;100.00
46718;BME280;32448;44.960;-0.698;2022-10-16T06:33:58;100976.66;;;13.33;100.00
46718;BME280;32448;44.960;-0.698;2022-10-16T06:36:28;100977.59;;;13.39;100.00
46718;BME280;32448;44.960;-0.698;2022-10-16T06:38:56;100981.06;;;13.37;100.00
46718;BME280;32448;44.960;-0.698;2022-10-16T06:41:26;100982.81;;;13.38;100.00
46718;BME280;32448;44.960;-0.698;2022-10-16T06:43:53;100984.56;;;13.37;100.00
46718;BME280;32448;44.960;-0.698;2022-10-16T06:46:23;100965.19;;;13.23;100.00
46718;BME280;32448;44.960;-0.698;2022-10-16T06:48:51;100992.44;;;13.36;100.00
46718;BME280;32448;44.960;-0.698;2022-10-16T06:51:21;100985.47;;;13.39;100.00
46718;BME280;32448;44.960;-0.698;2022-10-16T06:53:52;100978.44;;;13.34;100.00
46718;BME280;32448;44.960;-0.698;2022-10-16T06:56:32;100988.97;;;13.40;100.00
46718;BME280;32448;44.960;-0.698;2022-10-16T06:59:02;100981.06;;;13.34;100.00
46718;BME280;32448;44.960;-0.698;2022-10-16T07:01:31;100995.97;;;13.41;100.00
46718;BME280;32448;44.960;-0.698;2022-10-16T07:04:00;100989.84;;;13.40;100.00
46718;BME280;32448;44.960;-0.698;2022-10-16T07:06:31;100981.09;;;13.40;100.00
46718;BME280;32448;44.960;-0.698;2022-10-16T07:09:04;100982.03;;;13.48;100.00
46718;BME280;32448;44.960;-0.698;2022-10-16T07:11:32;100982.09;;;13.54;100.00
46718;BME280;32448;44.960;-0.698;2022-10-16T07:14:00;100975.94;;;13.51;100.00
46718;BME280;32448;44.960;-0.698;2022-10-16T07:16:29;100991.75;;;13.57;100.00
46718;BME280;32448;44.960;-0.698;2022-10-16T07:18:59;100996.13;;;13.61;100.00
46718;BME280;32448;44.960;-0.698;2022-10-16T07:21:31;100990.00;;;13.59;100.00
46718;BME280;32448;44.960;-0.698;2022-10-16T07:24:04;100971.53;;;13.46;100.00
46718;BME280;32448;44.960;-0.698;2022-10-16T07:26:35;100997.06;;;13.66;100.00
46718;BME280;32448;44.960;-0.698;2022-10-16T07:29:08;100998.84;;;13.70;100.00
46718;BME280;32448;44.960;-0.698;2022-10-16T07:31:38;100999.66;;;13.63;100.00
46718;BME280;32448;44.960;-0.698;2022-10-16T07:34:07;101003.22;;;13.71;100.00
46718;BME280;32448;44.960;-0.698;2022-10-16T07:36:34;101002.34;;;13.72;100.00
46718;BME280;32448;44.960;-0.698;2022-10-16T07:39:02;101003.25;;;13.72;100.00
46718;BME280;32448;44.960;-0.698;2022-10-16T07:41:30;100999.72;;;13.69;100.00
46718;BME280;32448;44.960;-0.698;2022-10-16T07:44:00;100994.53;;;13.78;100.00
46718;BME280;32448;44.960;-0.698;2022-10-16T07:46:28;101003.28;;;13.77;100.00
46718;BME280;32448;44.960;-0.698;2022-10-16T07:48:56;100996.31;;;13.80;100.00
46718;BME280;32448;44.960;-0.698;2022-10-16T07:51:25;100988.41;;;13.77;100.00
46718;BME280;32448;44.960;-0.698;2022-10-16T07:53:53;101007.81;;;13.96;100.00
46718;BME280;32448;44.960;-0.698;2022-10-16T07:56:20;101012.22;;;14.03;100.00
46718;BME280;32448;44.960;-0.698;2022-10-16T07:58:48;101005.22;;;14.02;100.00
46718;BME280;32448;44.960;-0.698;2022-10-16T08:01:17;101004.34;;;14.03;100.00
46718;BME280;32448;44.960;-0.698;2022-10-16T08:03:47;101019.31;;;14.13;100.00
46718;BME280;32448;44.960;-0.698;2022-10-16T08:06:15;101014.94;;;14.17;100.00
46718;BME280;32448;44.960;-0.698;2022-10-16T08:08:46;101022.03;;;14.24;100.00
46718;BME280;32448;44.960;-0.698;2022-10-16T08:11:14;101015.94;;;14.33;100.00
46718;BME280;32448;44.960;-0.698;2022-10-16T08:13:42;101023.03;;;14.44;100.00
46718;BME280;32448;44.960;-0.698;2022-10-16T08:16:11;101014.31;;;14.53;100.00
46718;BME280;32448;44.960;-0.698;2022-10-16T08:18:40;101018.72;;;14.55;100.00
46718;BME280;32448;44.960;-0.698;2022-10-16T08:21:16;101007.28;;;14.50;100.00
46718;BME280;32448;44.960;-0.698;2022-10-16T08:23:48;101011.78;;;14.76;100.00
46718;BME280;32448;44.960;-0.698;2022-10-16T08:26:25;101011.72;;;14.65;100.00
46718;BME280;32448;44.960;-0.698;2022-10-16T08:28:53;101018.81;;;14.86;100.00
46718;BME280;32448;44.960;-0.698;2022-10-16T08:31:20;101020.56;;;14.91;100.00
46718;BME280;32448;44.960;-0.698;2022-10-16T08:33:48;101024.16;;;15.01;100.00
46718;BME280;32448;44.960;-0.698;2022-10-16T08:36:16;101004.78;;;14.93;100.00
46718;BME280;32448;44.960;-0.698;2022-10-16T08:38:44;101025.94;;;15.22;100.00
46718;BME280;32448;44.960;-0.698;2022-10-16T08:47:20;101008.41;;;15.42;100.00
46718;BME280;32448;44.960;-0.698;2022-10-16T08:50:13;101004.06;;;15.72;100.00
46718;BME280;32448;44.960;-0.698;2022-10-16T08:52:58;101022.53;;;15.79;100.00
46718;BME280;32448;44.960;-0.698;2022-10-16T08:55:46;101024.25;;;16.11;100.00
46718;BME280;32448;44.960;-0.698;2022-10-16T08:58:28;101026.88;;;16.11;100.00
46718;BME280;32448;44.960;-0.698;2022-10-16T09:00:59;101025.13;;;16.07;100.00
46718;BME280;32448;44.960;-0.698;2022-10-16T09:06:54;101021.59;;;16.23;100.00
46718;BME280;32448;44.960;-0.698;2022-10-16T09:14:58;101020.50;;;16.88;100.00
46718;BME280;32448;44.960;-0.698;2022-10-16T09:22:37;101020.25;;;17.33;100.00
46718;BME280;32448;44.960;-0.698;2022-10-16T09:25:16;101019.31;;;17.39;100.00
46718;BME280;32448;44.960;-0.698;2022-10-16T09:27:47;101005.22;;;17.38;100.00
46718;BME280;32448;44.960;-0.698;2022-10-16T09:30:19;101021.00;;;17.49;100.00
46718;BME280;32448;44.960;-0.698;2022-10-16T09:32:50;101010.41;;;17.54;100.00
46718;BME280;32448;44.960;-0.698;2022-10-16T09:38:00;101009.31;;;17.80;100.00
46718;BME280;32448;44.960;-0.698;2022-10-16T09:40:37;100997.81;;;17.85;100.00
46718;BME280;32448;44.960;-0.698;2022-10-16T09:43:25;101014.41;;;18.02;100.00
46718;BME280;32448;44.960;-0.698;2022-10-16T09:46:02;101010.00;;;18.01;100.00
46718;BME280;32448;44.960;-0.698;2022-10-16T09:48:49;101006.34;;;18.12;100.00
46718;BME280;32448;44.960;-0.698;2022-10-16T09:53:58;101013.16;;;18.36;100.00
46718;BME280;32448;44.960;-0.698;2022-10-16T09:58:56;101014.91;;;18.39;100.00
46718;BME280;32448;44.960;-0.698;2022-10-16T10:04:07;101010.28;;;18.59;100.00
46718;BME280;32448;44.960;-0.698;2022-10-16T10:06:55;101006.34;;;18.90;100.00
46718;BME280;32448;44.960;-0.698;2022-10-16T10:09:26;101009.78;;;18.99;100.00
46718;BME280;32448;44.960;-0.698;2022-10-16T10:11:56;101000.25;;;18.84;100.00
46718;BME280;32448;44.960;-0.698;2022-10-16T10:19:56;100985.00;;;19.01;100.00
46718;BME280;32448;44.960;-0.698;2022-10-16T10:25:19;100995.09;;;19.35;100.00
46718;BME280;32448;44.960;-0.698;2022-10-16T10:36:36;101000.59;;;19.78;100.00
46718;BME280;32448;44.960;-0.698;2022-10-16T10:39:17;100990.59;;;19.95;100.00
46718;BME280;32448;44.960;-0.698;2022-10-16T10:56:06;100986.22;;;20.40;100.00
46718;BME280;32448;44.960;-0.698;2022-10-16T11:01:47;100987.19;;;20.78;100.00
46718;BME280;32448;44.960;-0.698;2022-10-16T11:07:04;100973.56;;;20.94;100.00
46718;BME280;32448;44.960;-0.698;2022-10-16T11:09:36;100979.34;;;21.12;100.00
46718;BME280;32448;44.960;-0.698;2022-10-16T11:14:44;100973.91;;;21.19;100.00
46718;BME280;32448;44.960;-0.698;2022-10-16T11:17:22;100965.94;;;21.19;100.00
46718;BME280;32448;44.960;-0.698;2022-10-16T11:20:01;100973.66;;;21.30;100.00
46718;BME280;32448;44.960;-0.698;2022-10-16T11:22:37;100959.94;;;21.47;100.00
46718;BME280;32448;44.960;-0.698;2022-10-16T11:28:09;100973.84;;;21.58;100.00
46718;BME280;32448;44.960;-0.698;2022-10-16T11:30:51;100971.56;;;21.76;100.00
46718;BME280;32448;44.960;-0.698;2022-10-16T11:33:41;100976.72;;;21.84;100.00
46718;BME280;32448;44.960;-0.698;2022-10-16T11:39:31;100974.06;;;22.18;100.00
46718;BME280;32448;44.960;-0.698;2022-10-16T11:42:10;100961.72;;;22.14;100.00
46718;BME280;32448;44.960;-0.698;2022-10-16T11:47:54;100953.50;;;22.23;100.00
46718;BME280;32448;44.960;-0.698;2022-10-16T11:55:46;100961.38;;;22.57;100.00
46718;BME280;32448;44.960;-0.698;2022-10-16T11:58:35;100956.06;;;22.86;100.00
46718;BME280;32448;44.960;-0.698;2022-10-16T12:01:28;100956.94;;;22.87;100.00
46718;BME280;32448;44.960;-0.698;2022-10-16T12:07:03;100954.25;;;22.88;100.00
46718;BME280;32448;44.960;-0.698;2022-10-16T12:09:37;100955.16;;;22.87;100.00
46718;BME280;32448;44.960;-0.698;2022-10-16T12:12:24;100956.53;;;23.01;100.00
46718;BME280;32448;44.960;-0.698;2022-10-16T12:15:21;100948.19;;;23.11;100.00
46718;BME280;32448;44.960;-0.698;2022-10-16T12:18:21;100922.16;;;23.19;100.00
46718;BME280;32448;44.960;-0.698;2022-10-16T12:21:03;100928.41;;;23.18;100.00
46718;BME280;32448;44.960;-0.698;2022-10-16T12:23:50;100954.00;;;23.24;100.00
46718;BME280;32448;44.960;-0.698;2022-10-16T12:26:32;100949.94;;;23.40;100.00
46718;BME280;32448;44.960;-0.698;2022-10-16T12:29:39;100937.25;;;23.47;100.00
46718;BME280;32448;44.960;-0.698;2022-10-16T12:32:28;100922.69;;;23.31;100.00
46718;BME280;32448;44.960;-0.698;2022-10-16T12:35:20;100918.63;;;23.45;100.00
46718;BME280;32448;44.960;-0.698;2022-10-16T12:37:51;100936.22;;;23.52;100.00
46718;BME280;32448;44.960;-0.698;2022-10-16T12:40:30;100936.53;;;23.68;100.00
46718;BME280;32448;44.960;-0.698;2022-10-16T12:42:58;100912.03;;;23.57;100.00
46718;BME280;32448;44.960;-0.698;2022-10-16T12:45:32;100933.78;;;23.96;100.00
46718;BME280;32448;44.960;-0.698;2022-10-16T12:48:03;100899.00;;;23.98;100.00
46718;BME280;32448;44.960;-0.698;2022-10-16T12:50:34;100928.66;;;24.40;100.00
46718;BME280;32448;44.960;-0.698;2022-10-16T12:53:22;100910.97;;;24.36;100.00
46718;BME280;32448;44.960;-0.698;2022-10-16T12:56:04;100914.28;;;24.42;100.00
46718;BME280;32448;44.960;-0.698;2022-10-16T13:01:56;100911.81;;;24.61;100.00
46718;BME280;32448;44.960;-0.698;2022-10-16T13:09:46;100912.84;;;24.34;100.00
46718;BME280;32448;44.960;-0.698;2022-10-16T13:12:57;100900.59;;;24.51;100.00
46718;BME280;32448;44.960;-0.698;2022-10-16T13:18:23;100911.81;;;24.38;100.00
46718;BME280;32448;44.960;-0.698;2022-10-16T13:29:01;100870.53;;;24.21;100.00
46718;BME280;32448;44.960;-0.698;2022-10-16T13:31:30;100898.25;;;24.42;100.00
46718;BME280;32448;44.960;-0.698;2022-10-16T13:33:59;100905.47;;;24.40;100.00
46718;BME280;32448;44.960;-0.698;2022-10-16T13:36:34;100860.63;;;24.48;98.99
46718;BME280;32448;44.960;-0.698;2022-10-16T13:39:16;100878.97;;;24.34;100.00
46718;BME280;32448;44.960;-0.698;2022-10-16T13:44:43;100899.88;;;24.91;87.60
46718;BME280;32448;44.960;-0.698;2022-10-16T13:49:48;100877.56;;;24.71;99.24
46718;BME280;32448;44.960;-0.698;2022-10-16T13:52:25;100896.59;;;24.85;94.25
46718;BME280;32448;44.960;-0.698;2022-10-16T13:54:54;100877.44;;;24.74;100.00
46718;BME280;32448;44.960;-0.698;2022-10-16T13:57:28;100889.69;;;24.79;100.00
46718;BME280;32448;44.960;-0.698;2022-10-16T13:59:55;100883.25;;;25.07;86.01
46718;BME280;32448;44.960;-0.698;2022-10-16T14:02:30;100887.00;;;25.02;100.00
46718;BME280;32448;44.960;-0.698;2022-10-16T14:04:59;100873.94;;;24.95;100.00
46718;BME280;32448;44.960;-0.698;2022-10-16T14:07:32;100878.25;;;24.97;100.00
46718;BME280;32448;44.960;-0.698;2022-10-16T14:10:05;100862.38;;;24.94;90.35
46718;BME280;32448;44.960;-0.698;2022-10-16T14:12:34;100878.56;;;25.12;78.06
46718;BME280;32448;44.960;-0.698;2022-10-16T14:15:02;100887.84;;;25.03;90.15
46718;BME280;32448;44.960;-0.698;2022-10-16T14:17:35;100853.91;;;25.05;79.84
46718;BME280;32448;44.960;-0.698;2022-10-16T14:20:04;100880.16;;;24.95;89.87
46718;BME280;32448;44.960;-0.698;2022-10-16T14:22:38;100878.06;;;24.80;90.26
46718;BME280;32448;44.960;-0.698;2022-10-16T14:28:02;100886.53;;;24.91;85.32
46718;BME280;32448;44.960;-0.698;2022-10-16T14:30:31;100889.25;;;24.90;72.96
46718;BME280;32448;44.960;-0.698;2022-10-16T14:36:12;100878.13;;;24.79;81.58
46718;BME280;32448;44.960;-0.698;2022-10-16T14:38:43;100876.13;;;24.84;86.33
46718;BME280;32448;44.960;-0.698;2022-10-16T14:41:15;100886.91;;;24.82;84.28
46718;BME280;32448;44.960;-0.698;2022-10-16T14:47:52;100877.75;;;24.88;87.77
46718;BME280;32448;44.960;-0.698;2022-10-16T14:50:20;100885.34;;;24.98;89.23
46718;BME280;32448;44.960;-0.698;2022-10-16T14:52:53;100877.13;;;24.81;82.64
46718;BME280;32448;44.960;-0.698;2022-10-16T14:55:25;100873.41;;;24.85;77.01
46718;BME280;32448;44.960;-0.698;2022-10-16T14:57:53;100857.28;;;24.87;78.64
46718;BME280;32448;44.960;-0.698;2022-10-16T15:00:26;100875.94;;;24.88;77.60
46718;BME280;32448;44.960;-0.698;2022-10-16T15:02:55;100870.22;;;24.76;87.83
46718;BME280;32448;44.960;-0.698;2022-10-16T15:05:25;100870.41;;;24.71;86.85
46718;BME280;32448;44.960;-0.698;2022-10-16T15:07:54;100864.84;;;24.54;88.97
46718;BME280;32448;44.960;-0.698;2022-10-16T15:10:24;100859.81;;;24.46;79.36
46718;BME280;32448;44.960;-0.698;2022-10-16T15:12:52;100861.59;;;24.46;85.98
46718;BME280;32448;44.960;-0.698;2022-10-16T15:17:54;100879.22;;;24.28;86.47
46718;BME280;32448;44.960;-0.698;2022-10-16T15:20:33;100873.69;;;24.33;87.11
46718;BME280;32448;44.960;-0.698;2022-10-16T15:23:13;100876.59;;;24.26;90.70
46718;BME280;32448;44.960;-0.698;2022-10-16T15:25:45;100888.31;;;24.22;93.56
46718;BME280;32448;44.960;-0.698;2022-10-16T15:28:14;100870.53;;;24.21;91.52
46718;BME280;32448;44.960;-0.698;2022-10-16T15:30:42;100879.47;;;24.20;95.41
46718;BME280;32448;44.960;-0.698;2022-10-16T15:33:15;100875.19;;;24.16;90.15
46718;BME280;32448;44.960;-0.698;2022-10-16T15:35:47;100886.53;;;24.21;82.04
46718;BME280;32448;44.960;-0.698;2022-10-16T15:38:17;100876.59;;;24.26;86.58
46718;BME280;32448;44.960;-0.698;2022-10-16T15:40:46;100876.16;;;24.39;93.13
46718;BME280;32448;44.960;-0.698;2022-10-16T15:43:17;100879.03;;;24.56;83.63
46718;BME280;32448;44.960;-0.698;2022-10-16T15:46:04;100882.09;;;24.68;92.07
46718;BME280;32448;44.960;-0.698;2022-10-16T15:48:33;100887.84;;;24.58;97.42
46718;BME280;32448;44.960;-0.698;2022-10-16T15:51:04;100882.88;;;24.49;100.00
46718;BME280;32448;44.960;-0.698;2022-10-16T15:53:32;100890.59;;;24.56;99.89
46718;BME280;32448;44.960;-0.698;2022-10-16T15:56:02;100882.31;;;24.41;100.00
46718;BME280;32448;44.960;-0.698;2022-10-16T15:58:33;100893.91;;;24.40;100.00
46718;BME280;32448;44.960;-0.698;2022-10-16T16:01:01;100893.22;;;24.35;100.00
46718;BME280;32448;44.960;-0.698;2022-10-16T16:03:31;100890.44;;;24.38;100.00
46718;BME280;32448;44.960;-0.698;2022-10-16T16:06:06;100905.94;;;24.28;100.00
46718;BME280;32448;44.960;-0.698;2022-10-16T16:08:37;100908.38;;;24.34;100.00
46718;BME280;32448;44.960;-0.698;2022-10-16T16:11:08;100890.34;;;24.16;100.00
46718;BME280;32448;44.960;-0.698;2022-10-16T16:13:42;100900.91;;;24.19;100.00
46718;BME280;32448;44.960;-0.698;2022-10-16T16:16:14;100904.88;;;24.32;100.00
46718;BME280;32448;44.960;-0.698;2022-10-16T16:18:45;100907.97;;;24.20;100.00
46718;BME280;32448;44.960;-0.698;2022-10-16T16:21:13;100916.22;;;24.14;100.00
46718;BME280;32448;44.960;-0.698;2022-10-16T16:23:40;100873.75;;;23.83;100.00
46718;BME280;32448;44.960;-0.698;2022-10-16T16:26:21;100913.41;;;23.93;100.00
46718;BME280;32448;44.960;-0.698;2022-10-16T16:28:56;100919.03;;;23.86;100.00
46718;BME280;32448;44.960;-0.698;2022-10-16T16:31:25;100922.72;;;23.82;100.00
46718;BME280;32448;44.960;-0.698;2022-10-16T16:33:53;100916.66;;;23.52;100.00
46718;BME280;32448;44.960;-0.698;2022-10-16T16:36:21;100924.66;;;23.52;100.00
46718;BME280;32448;44.960;-0.698;2022-10-16T16:38:49;100929.50;;;23.39;100.00
46718;BME280;32448;44.960;-0.698;2022-10-16T16:41:28;100921.91;;;23.27;100.00
46718;BME280;32448;44.960;-0.698;2022-10-16T16:44:05;100925.69;;;23.20;100.00
46718;BME280;32448;44.960;-0.698;2022-10-16T16:46:33;100929.34;;;23.17;100.00
46718;BME280;32448;44.960;-0.698;2022-10-16T16:49:01;100935.91;;;23.07;100.00
46718;BME280;32448;44.960;-0.698;2022-10-16T16:51:30;100929.91;;;22.99;100.00
46718;BME280;32448;44.960;-0.698;2022-10-16T16:54:01;100922.28;;;22.87;100.00
46718;BME280;32448;44.960;-0.698;2022-10-16T16:56:28;100929.63;;;22.80;100.00
46718;BME280;32448;44.960;-0.698;2022-10-16T16:58:56;100928.84;;;22.77;100.00
46718;BME280;32448;44.960;-0.698;2022-10-16T17:01:26;100946.00;;;22.67;100.00
46718;BME280;32448;44.960;-0.698;2022-10-16T17:03:56;100924.38;;;22.48;100.00
46718;BME280;32448;44.960;-0.698;2022-10-16T17:06:26;100946.59;;;22.47;100.00
46718;BME280;32448;44.960;-0.698;2022-10-16T17:08:54;100940.69;;;22.36;100.00
46718;BME280;32448;44.960;-0.698;2022-10-16T17:11:24;100930.44;;;22.22;100.00
46718;BME280;32448;44.960;-0.698;2022-10-16T17:13:54;100940.34;;;22.17;100.00
46718;BME280;32448;44.960;-0.698;2022-10-16T17:16:26;100946.75;;;22.10;100.00
46718;BME280;32448;44.960;-0.698;2022-10-16T17:18:53;100948.88;;;21.97;100.00
46718;BME280;32448;44.960;-0.698;2022-10-16T17:21:21;100940.38;;;21.83;100.00
46718;BME280;32448;44.960;-0.698;2022-10-16T17:23:51;100970.31;;;21.91;100.00
46718;BME280;32448;44.960;-0.698;2022-10-16T17:26:19;100959.09;;;21.78;100.00
46718;BME280;32448;44.960;-0.698;2022-10-16T17:28:51;100956.91;;;21.62;100.00
46718;BME280;32448;44.960;-0.698;2022-10-16T17:31:23;100971.06;;;21.62;100.00
46718;BME280;32448;44.960;-0.698;2022-10-16T17:33:53;100977.50;;;21.54;100.00
46718;BME280;32448;44.960;-0.698;2022-10-16T17:36:21;100969.72;;;21.44;100.00
46718;BME280;32448;44.960;-0.698;2022-10-16T17:38:49;100977.97;;;21.34;100.00
46718;BME280;32448;44.960;-0.698;2022-10-16T17:41:19;100965.94;;;21.18;100.00
46718;BME280;32448;44.960;-0.698;2022-10-16T17:43:46;100978.31;;;21.20;100.00
46718;BME280;32448;44.960;-0.698;2022-10-16T17:46:15;100981.00;;;21.17;100.00
46718;BME280;32448;44.960;-0.698;2022-10-16T17:48:48;100977.72;;;21.06;100.00
46718;BME280;32448;44.960;-0.698;2022-10-16T17:51:20;100978.00;;;20.94;100.00
46718;BME280;32448;44.960;-0.698;2022-10-16T17:53:49;100969.47;;;20.78;100.00
46718;BME280;32448;44.960;-0.698;2022-10-16T17:56:16;100970.53;;;20.71;100.00
46718;BME280;32448;44.960;-0.698;2022-10-16T17:58:50;100996.91;;;20.79;100.00